Time;durP1;ratioP1;P1;durP2;ratioP2;P2;SDS_P1;SDS_P2;PMS_P1;PMS_P2;Temp;Humidity;BMP_temperature;BMP_pressure;BME280_temperature;BME280_humidity;BME280_pressure;Samples;Min_cycle;Max_cycle;Signal;HPM_P1;HPM_P2
2023/12/17 00:00:04;;;;;;;1.60;0.60;;;10.40;99.90;;;;;;5043874;28;20288;-67
2023/12/17 00:02:31;;;;;;;0.70;0.70;;;10.40;99.90;;;;;;5046149;28;20288;-66
2023/12/17 00:04:58;;;;;;;0.83;0.83;;;10.40;99.90;;;;;;5042586;28;20252;-67
2023/12/17 00:07:28;;;;;;;0.60;0.60;;;10.40;99.90;;;;;;5049556;28;20271;-67
2023/12/17 00:09:56;;;;;;;0.70;0.70;;;10.40;99.90;;;;;;5032120;28;20597;-68
2023/12/17 00:12:23;;;;;;;1.00;0.80;;;10.40;99.90;;;;;;5026999;28;20194;-67
2023/12/17 00:14:50;;;;;;;1.93;0.80;;;10.40;99.90;;;;;;5047588;28;20531;-67
2023/12/17 00:17:21;;;;;;;0.73;0.70;;;10.40;99.90;;;;;;5047791;28;20199;-66
2023/12/17 00:19:48;;;;;;;0.70;0.70;;;10.40;99.90;;;;;;5031578;28;20204;-66
2023/12/17 00:22:17;;;;;;;0.70;0.70;;;10.50;99.90;;;;;;5048307;28;20276;-66
2023/12/17 00:24:44;;;;;;;0.70;0.70;;;10.40;99.90;;;;;;5031842;28;20634;-67
2023/12/17 00:27:15;;;;;;;1.77;0.80;;;10.50;99.90;;;;;;5049359;28;20267;-67
2023/12/17 00:29:42;;;;;;;0.70;0.70;;;10.50;99.90;;;;;;5025421;28;20305;-68
2023/12/17 00:32:09;;;;;;;1.00;0.90;;;10.50;99.90;;;;;;5044810;28;20205;-67
2023/12/17 00:34:36;;;;;;;0.87;0.70;;;10.50;99.90;;;;;;5047095;28;20648;-67
2023/12/17 00:37:05;;;;;;;1.17;0.83;;;10.60;99.90;;;;;;5041248;28;20192;-68
2023/12/17 00:39:32;;;;;;;0.80;0.80;;;10.50;99.90;;;;;;5048958;28;20518;-65
2023/12/17 00:41:59;;;;;;;0.70;0.70;;;10.50;99.90;;;;;;5049236;28;20192;-67
2023/12/17 00:44:27;;;;;;;1.00;0.77;;;10.50;99.90;;;;;;5044859;28;20231;-67
2023/12/17 00:46:57;;;;;;;0.90;0.90;;;10.50;99.90;;;;;;5037963;28;20209;-67
2023/12/17 00:49:27;;;;;;;0.80;0.80;;;10.50;99.90;;;;;;5021882;28;20202;-67
2023/12/17 00:51:56;;;;;;;1.00;1.00;;;10.50;99.90;;;;;;5030457;28;20199;-66
2023/12/17 00:54:23;;;;;;;0.80;0.80;;;10.50;99.90;;;;;;5048382;28;20649;-67
2023/12/17 00:56:50;;;;;;;1.00;0.90;;;10.50;99.90;;;;;;5030755;28;20198;-67
2023/12/17 00:59:17;;;;;;;1.10;1.10;;;10.50;99.90;;;;;;5031180;28;20205;-67
2023/12/17 01:01:46;;;;;;;0.90;0.90;;;10.50;99.90;;;;;;5039612;28;20190;-68
2023/12/17 01:04:13;;;;;;;1.90;1.00;;;10.50;99.90;;;;;;5045236;28;20237;-66
2023/12/17 01:06:41;;;;;;;1.00;1.00;;;10.50;99.90;;;;;;5042734;28;20692;-67
2023/12/17 01:09:10;;;;;;;1.37;1.20;;;10.50;99.90;;;;;;5044840;28;20252;-67
2023/12/17 01:11:37;;;;;;;1.63;1.30;;;10.60;99.90;;;;;;5049073;28;20262;-67
2023/12/17 01:14:06;;;;;;;2.70;1.20;;;10.60;99.90;;;;;;5040050;28;20662;-67
2023/12/17 01:16:35;;;;;;;1.40;1.30;;;10.60;99.90;;;;;;5052181;28;20313;-67
2023/12/17 01:19:04;;;;;;;1.17;1.10;;;10.60;99.90;;;;;;5034597;28;20834;-67
2023/12/17 01:21:31;;;;;;;2.00;1.40;;;10.60;99.90;;;;;;5050977;28;20193;-67
2023/12/17 01:23:58;;;;;;;3.33;1.73;;;10.60;99.90;;;;;;5052985;28;20625;-67
2023/12/17 01:26:26;;;;;;;1.53;1.30;;;10.60;99.90;;;;;;5052262;28;20218;-67
2023/12/17 01:28:53;;;;;;;1.50;1.30;;;10.60;99.90;;;;;;5046616;28;20638;-66
2023/12/17 01:31:20;;;;;;;2.50;1.83;;;10.60;99.90;;;;;;5048076;28;20236;-67
2023/12/17 01:33:47;;;;;;;2.00;1.53;;;10.50;99.90;;;;;;5043586;28;20221;-67
2023/12/17 01:36:16;;;;;;;2.30;1.97;;;10.60;99.90;;;;;;5050064;28;20239;-67
2023/12/17 01:38:43;;;;;;;2.03;1.53;;;10.60;99.90;;;;;;5047213;28;20208;-67
2023/12/17 01:41:10;;;;;;;1.47;1.40;;;10.60;99.90;;;;;;5044915;28;20283;-67
2023/12/17 01:43:37;;;;;;;2.50;1.93;;;10.60;99.90;;;;;;5039884;28;20209;-67
2023/12/17 01:46:05;;;;;;;2.77;1.77;;;10.60;99.90;;;;;;5051547;28;20194;-67
2023/12/17 01:48:32;;;;;;;2.60;1.60;;;10.50;99.90;;;;;;5051392;28;20225;-66
2023/12/17 01:51:00;;;;;;;2.13;1.60;;;10.50;99.90;;;;;;5053390;28;20611;-66
2023/12/17 01:53:29;;;;;;;3.17;2.00;;;10.60;99.90;;;;;;5037771;28;20201;-66
2023/12/17 01:55:57;;;;;;;4.80;2.10;;;10.50;99.90;;;;;;5020699;28;20217;-66
2023/12/17 01:58:24;;;;;;;3.40;1.70;;;10.50;99.90;;;;;;5050721;28;20504;-66
2023/12/17 02:00:51;;;;;;;2.23;1.93;;;10.60;99.90;;;;;;5052214;28;20206;-67
2023/12/17 02:03:25;;;;;;;3.43;1.87;;;10.60;99.90;;;;;;5034580;28;20734;-67
2023/12/17 02:05:52;;;;;;;3.47;1.90;;;10.60;99.90;;;;;;5052144;28;20311;-67
2023/12/17 02:08:18;;;;;;;3.33;1.90;;;10.60;99.90;;;;;;5049985;28;20668;-67
2023/12/17 02:10:46;;;;;;;1.70;1.60;;;10.60;99.90;;;;;;5051835;28;20273;-67
2023/12/17 02:13:15;;;;;;;2.43;1.70;;;10.60;99.90;;;;;;5051496;28;20205;-67
2023/12/17 02:15:44;;;;;;;3.60;1.90;;;10.60;99.90;;;;;;5034191;28;20233;-67
2023/12/17 02:18:11;;;;;;;3.57;1.70;;;10.60;99.90;;;;;;5051560;28;20192;-67
2023/12/17 02:20:43;;;;;;;4.60;1.60;;;10.60;99.90;;;;;;5051181;28;20706;-67
2023/12/17 02:23:12;;;;;;;4.40;1.70;;;10.60;99.90;;;;;;5052097;28;20194;-67
2023/12/17 02:25:39;;;;;;;2.87;1.63;;;10.60;99.90;;;;;;5052051;28;20573;-66
2023/12/17 02:28:06;;;;;;;2.90;1.73;;;10.60;99.90;;;;;;5050177;28;20300;-67
2023/12/17 02:30:33;;;;;;;5.40;1.60;;;10.60;99.90;;;;;;5050204;28;20413;-67
2023/12/17 02:33:00;;;;;;;2.47;1.93;;;10.60;99.90;;;;;;5052244;28;20227;-67
2023/12/17 02:35:27;;;;;;;3.33;1.60;;;10.70;99.90;;;;;;5051425;28;20205;-68
2023/12/17 02:37:54;;;;;;;1.97;1.50;;;10.60;99.90;;;;;;5049853;28;20205;-67
2023/12/17 02:40:23;;;;;;;4.50;1.57;;;10.60;99.90;;;;;;5050495;28;20210;-68
2023/12/17 02:42:50;;;;;;;2.90;1.80;;;10.70;99.90;;;;;;5049272;28;20300;-66
2023/12/17 02:45:17;;;;;;;3.93;1.90;;;10.70;99.90;;;;;;5017504;28;20301;-67
2023/12/17 02:47:44;;;;;;;3.07;1.97;;;10.70;99.90;;;;;;5051288;28;20302;-66
2023/12/17 02:50:11;;;;;;;3.47;1.70;;;10.70;99.90;;;;;;5050567;28;20613;-66
2023/12/17 02:52:38;;;;;;;2.90;1.60;;;10.70;99.90;;;;;;5051063;28;20316;-67
2023/12/17 02:55:06;;;;;;;3.37;1.60;;;10.70;99.90;;;;;;5051496;28;20282;-68
2023/12/17 02:57:35;;;;;;;4.70;1.77;;;10.70;99.90;;;;;;5050096;28;20682;-66
2023/12/17 03:00:03;;;;;;;3.63;1.67;;;10.70;99.90;;;;;;5050861;28;20687;-67
2023/12/17 03:02:30;;;;;;;3.03;1.60;;;10.70;99.90;;;;;;5051487;28;20288;-66
2023/12/17 03:04:58;;;;;;;3.70;1.80;;;10.70;99.90;;;;;;5050090;28;20724;-67
2023/12/17 03:07:26;;;;;;;3.90;1.90;;;10.70;99.90;;;;;;5049456;28;20203;-67
2023/12/17 03:09:54;;;;;;;2.23;1.50;;;10.80;99.90;;;;;;5050897;28;20209;-66
2023/12/17 03:12:21;;;;;;;2.90;1.80;;;10.80;99.90;;;;;;5049989;28;20412;-67
2023/12/17 03:14:52;;;;;;;2.43;1.40;;;10.80;99.90;;;;;;5050145;28;20197;-66
2023/12/17 03:17:19;;;;;;;7.30;2.43;;;10.80;99.90;;;;;;5051098;28;20281;-67
2023/12/17 03:19:46;;;;;;;2.73;1.90;;;10.80;99.90;;;;;;5050166;28;20253;-66
2023/12/17 03:22:13;;;;;;;3.13;2.10;;;10.80;99.90;;;;;;5036695;28;20222;-67
2023/12/17 03:24:40;;;;;;;2.13;1.80;;;10.80;99.90;;;;;;5051095;28;20335;-67
2023/12/17 03:27:07;;;;;;;4.40;2.20;;;10.80;99.90;;;;;;5049988;28;20308;-67
2023/12/17 03:29:34;;;;;;;2.60;1.53;;;10.70;99.90;;;;;;5049857;28;20208;-67
2023/12/17 03:32:03;;;;;;;4.10;1.63;;;10.70;99.90;;;;;;5048330;28;20298;-66
2023/12/17 03:34:30;;;;;;;3.03;1.60;;;10.70;99.90;;;;;;5049330;28;20210;-67
2023/12/17 03:36:57;;;;;;;4.67;1.87;;;10.70;99.90;;;;;;5050571;28;20657;-67
2023/12/17 03:39:24;;;;;;;3.73;2.17;;;10.70;99.90;;;;;;5048674;28;20273;-67
2023/12/17 03:41:51;;;;;;;8.20;2.10;;;10.70;99.90;;;;;;5050106;28;20310;-66
2023/12/17 03:44:18;;;;;;;4.03;1.90;;;10.70;99.90;;;;;;5048604;28;20195;-66
2023/12/17 03:46:45;;;;;;;3.07;1.80;;;10.70;99.90;;;;;;5050333;28;20224;-66
2023/12/17 03:49:14;;;;;;;3.90;1.83;;;10.70;99.90;;;;;;5049352;28;20259;-66
2023/12/17 03:51:41;;;;;;;1.93;1.53;;;10.70;99.90;;;;;;5048252;28;20200;-66
2023/12/17 03:54:08;;;;;;;2.33;1.40;;;10.70;99.90;;;;;;5031571;28;20206;-66
2023/12/17 03:56:35;;;;;;;4.07;1.90;;;10.70;99.90;;;;;;5048276;28;20288;-66
2023/12/17 03:59:02;;;;;;;3.03;1.70;;;10.70;99.90;;;;;;5031058;28;20633;-66
2023/12/17 04:01:29;;;;;;;5.03;1.73;;;10.70;99.90;;;;;;5048153;28;20297;-66
2023/12/17 04:03:57;;;;;;;3.33;2.00;;;10.70;99.90;;;;;;5048490;28;20239;-66
2023/12/17 04:06:29;;;;;;;3.07;1.90;;;10.70;99.90;;;;;;5043435;28;20198;-66
2023/12/17 04:08:56;;;;;;;2.37;2.03;;;10.70;99.90;;;;;;5049240;28;20300;-66
2023/12/17 04:11:23;;;;;;;3.17;1.90;;;10.70;99.90;;;;;;5030897;28;20217;-66
2023/12/17 04:13:51;;;;;;;2.67;2.00;;;10.70;99.90;;;;;;5049511;28;20599;-66
2023/12/17 04:16:18;;;;;;;1.70;1.60;;;10.70;99.90;;;;;;5049997;28;20205;-67
2023/12/17 04:18:45;;;;;;;2.43;1.77;;;10.70;99.90;;;;;;5044047;28;20204;-66
2023/12/17 04:21:12;;;;;;;2.07;1.87;;;10.70;99.90;;;;;;5044336;28;20679;-66
2023/12/17 04:23:41;;;;;;;4.07;1.90;;;10.70;99.90;;;;;;5031904;28;20215;-67
2023/12/17 04:26:10;;;;;;;4.07;1.63;;;10.70;99.90;;;;;;5045792;28;20203;-66
2023/12/17 04:28:37;;;;;;;2.50;1.73;;;10.70;99.90;;;;;;5029604;28;20248;-67
2023/12/17 04:31:05;;;;;;;2.83;1.80;;;10.70;99.90;;;;;;5042390;28;20205;-67
2023/12/17 04:33:32;;;;;;;2.10;1.80;;;10.70;99.90;;;;;;5029617;28;20243;-67
2023/12/17 04:36:00;;;;;;;3.43;1.90;;;10.70;99.90;;;;;;5044885;28;20601;-67
2023/12/17 04:38:27;;;;;;;2.37;1.83;;;10.70;99.90;;;;;;5046569;28;20664;-67
2023/12/17 04:40:55;;;;;;;4.60;1.93;;;10.70;99.90;;;;;;5049139;28;20247;-66
2023/12/17 04:43:23;;;;;;;2.33;2.10;;;10.80;99.90;;;;;;5048511;28;20669;-67
2023/12/17 04:45:50;;;;;;;1.70;1.60;;;10.80;99.90;;;;;;5024590;28;20630;-66
2023/12/17 04:48:17;;;;;;;2.50;1.87;;;10.80;99.90;;;;;;5049248;28;20628;-66
2023/12/17 04:50:44;;;;;;;2.60;2.03;;;10.80;99.90;;;;;;5034898;28;20821;-67
2023/12/17 04:53:11;;;;;;;4.70;2.63;;;10.80;99.90;;;;;;5030578;28;20260;-68
2023/12/17 04:55:38;;;;;;;2.50;1.80;;;10.80;99.90;;;;;;5049467;28;20196;-66
2023/12/17 04:58:07;;;;;;;2.60;2.00;;;10.80;99.90;;;;;;5047731;28;20266;-66
2023/12/17 05:00:34;;;;;;;2.53;1.83;;;10.80;99.90;;;;;;5031594;28;20253;-67
2023/12/17 05:03:01;;;;;;;2.23;2.03;;;10.70;99.90;;;;;;5039749;28;20233;-66
2023/12/17 05:05:28;;;;;;;2.57;2.17;;;10.70;99.90;;;;;;5042026;28;20217;-67
2023/12/17 05:07:55;;;;;;;1.90;1.80;;;10.80;99.90;;;;;;5044909;28;20239;-66
2023/12/17 05:10:22;;;;;;;2.17;1.90;;;10.70;99.90;;;;;;5048154;28;20363;-66
2023/12/17 05:12:49;;;;;;;2.40;1.60;;;10.70;99.90;;;;;;5048652;28;20205;-66
2023/12/17 05:15:23;;;;;;;2.27;1.70;;;10.60;99.90;;;;;;5049193;28;20209;-66
2023/12/17 05:17:53;;;;;;;2.70;1.73;;;10.80;99.90;;;;;;5038576;28;20207;-66
2023/12/17 05:20:20;;;;;;;2.40;2.17;;;10.60;99.90;;;;;;5044493;28;20559;-67
2023/12/17 05:22:50;;;;;;;4.30;1.80;;;10.60;99.90;;;;;;5044337;28;20195;-66
2023/12/17 05:25:17;;;;;;;2.30;1.57;;;10.60;99.90;;;;;;5049686;28;20240;-66
2023/12/17 05:27:44;;;;;;;1.50;1.40;;;10.60;99.90;;;;;;5046216;28;20206;-66
2023/12/17 05:30:12;;;;;;;2.17;1.67;;;10.60;99.90;;;;;;5049164;28;20286;-66
2023/12/17 05:32:41;;;;;;;1.67;1.47;;;10.60;99.90;;;;;;5049248;28;20199;-67
2023/12/17 05:35:10;;;;;;;1.10;1.10;;;11.00;99.90;;;;;;5047288;28;20225;-67
2023/12/17 05:37:37;;;;;;;3.23;1.40;;;10.50;99.90;;;;;;5048624;28;20672;-67
2023/12/17 05:40:06;;;;;;;2.33;1.37;;;10.50;99.90;;;;;;5026805;28;20539;-66
2023/12/17 05:42:34;;;;;;;1.33;1.23;;;10.50;99.90;;;;;;5028077;28;20199;-66
2023/12/17 05:45:01;;;;;;;1.80;1.00;;;10.50;99.90;;;;;;5047020;28;20751;-67
2023/12/17 05:47:29;;;;;;;1.10;1.00;;;10.50;99.90;;;;;;5048011;28;20206;-68
2023/12/17 05:49:57;;;;;;;2.37;1.10;;;10.50;99.90;;;;;;5048303;28;20205;-66
2023/12/17 05:52:24;;;;;;;2.10;1.10;;;10.40;99.90;;;;;;5049330;28;20284;-66
2023/12/17 05:54:51;;;;;;;1.73;1.10;;;10.40;99.90;;;;;;5049659;28;20223;-67
2023/12/17 05:57:22;;;;;;;1.57;1.13;;;10.40;99.90;;;;;;5047386;28;20228;-66
2023/12/17 05:59:50;;;;;;;0.97;0.90;;;10.40;99.90;;;;;;5029303;28;20241;-66
2023/12/17 06:02:17;;;;;;;0.87;0.87;;;10.40;99.90;;;;;;5048240;28;20221;-67
2023/12/17 06:04:44;;;;;;;2.90;1.03;;;10.40;99.90;;;;;;5044770;28;20256;-66
2023/12/17 06:07:14;;;;;;;1.90;0.90;;;10.40;99.90;;;;;;5027773;28;20566;-66
2023/12/17 06:09:41;;;;;;;0.93;0.80;;;10.40;99.90;;;;;;5051431;28;20274;-67
2023/12/17 06:12:11;;;;;;;0.80;0.80;;;10.40;99.90;;;;;;5051983;28;20196;-67
2023/12/17 06:14:41;;;;;;;1.67;0.80;;;10.40;99.90;;;;;;5050157;28;20202;-67
2023/12/17 06:17:08;;;;;;;0.90;0.90;;;10.40;99.90;;;;;;5033519;28;20280;-66
2023/12/17 06:19:37;;;;;;;1.60;0.93;;;10.40;99.90;;;;;;5050141;28;20221;-66
2023/12/17 06:22:04;;;;;;;2.10;0.90;;;10.40;99.90;;;;;;5033467;28;20568;-68
2023/12/17 06:24:33;;;;;;;1.17;0.70;;;10.50;99.90;;;;;;5033855;28;20558;-67
2023/12/17 06:27:00;;;;;;;0.73;0.73;;;10.40;99.90;;;;;;5046540;28;20597;-67
2023/12/17 06:29:27;;;;;;;1.73;1.00;;;10.50;99.90;;;;;;5031397;28;20245;-67
2023/12/17 06:31:57;;;;;;;0.80;0.80;;;10.50;99.90;;;;;;5048441;28;20535;-65
2023/12/17 06:34:25;;;;;;;0.87;0.70;;;10.50;99.90;;;;;;5050874;28;20191;-66
2023/12/17 06:36:52;;;;;;;1.77;0.83;;;10.50;99.90;;;;;;5049957;28;20555;-67
2023/12/17 06:39:19;;;;;;;0.60;0.60;;;10.50;99.90;;;;;;5051526;28;20197;-67
2023/12/17 06:41:47;;;;;;;1.50;1.07;;;10.50;99.90;;;;;;5047100;28;20214;-66
2023/12/17 06:44:16;;;;;;;1.30;0.80;;;10.50;99.90;;;;;;5051848;28;20270;-68
2023/12/17 06:46:44;;;;;;;0.70;0.70;;;10.50;99.90;;;;;;5051888;28;20554;-68
2023/12/17 06:49:11;;;;;;;1.37;0.80;;;10.50;99.90;;;;;;5027049;28;20295;-67
2023/12/17 06:51:39;;;;;;;0.97;0.80;;;10.50;99.90;;;;;;5047598;28;20194;-67
2023/12/17 06:54:08;;;;;;;0.70;0.70;;;10.60;99.90;;;;;;5044184;28;20198;-67
2023/12/17 06:56:35;;;;;;;0.80;0.70;;;10.60;99.90;;;;;;5050665;28;20224;-67
2023/12/17 06:59:07;;;;;;;0.87;0.80;;;10.60;99.90;;;;;;5033102;28;20242;-66
2023/12/17 07:01:35;;;;;;;1.40;0.70;;;10.60;99.90;;;;;;5051917;28;20186;-67
2023/12/17 07:04:02;;;;;;;0.90;0.90;;;10.60;99.90;;;;;;5048539;28;20309;-66
2023/12/17 07:06:30;;;;;;;0.67;0.67;;;10.60;99.90;;;;;;5046864;28;20252;-66
2023/12/17 07:08:58;;;;;;;0.80;0.80;;;10.60;99.90;;;;;;5033210;28;20214;-66
2023/12/17 07:11:25;;;;;;;0.70;0.70;;;10.70;99.90;;;;;;5049312;28;20750;-66
2023/12/17 07:13:52;;;;;;;0.63;0.63;;;10.70;99.90;;;;;;5050712;28;20200;-67
2023/12/17 07:16:25;;;;;;;0.80;0.80;;;10.70;99.90;;;;;;5033289;28;20565;-66
2023/12/17 07:18:52;;;;;;;2.00;0.70;;;10.70;99.90;;;;;;5048438;28;20199;-66
2023/12/17 07:21:19;;;;;;;0.60;0.60;;;10.70;99.90;;;;;;5048543;28;20233;-67
2023/12/17 07:23:46;;;;;;;0.63;0.63;;;10.80;99.90;;;;;;5051162;28;20201;-66
2023/12/17 07:26:14;;;;;;;1.90;0.80;;;10.80;99.90;;;;;;5049679;28;20256;-67
2023/12/17 07:28:41;;;;;;;0.67;0.67;;;10.80;99.90;;;;;;5050654;28;20222;-67
2023/12/17 07:31:08;;;;;;;0.60;0.60;;;10.80;99.90;;;;;;5050634;28;20278;-66
2023/12/17 07:33:36;;;;;;;0.83;0.83;;;10.80;99.90;;;;;;5051172;28;20189;-66
2023/12/17 07:36:04;;;;;;;0.70;0.60;;;10.70;99.90;;;;;;5049307;28;20283;-67
2023/12/17 07:38:33;;;;;;;0.73;0.73;;;10.70;99.90;;;;;;5045636;28;20251;-67
2023/12/17 07:41:00;;;;;;;1.13;0.60;;;11.00;99.90;;;;;;5047098;28;20192;-67
2023/12/17 07:43:29;;;;;;;1.10;1.00;;;10.70;99.90;;;;;;5036476;28;20206;-67
2023/12/17 07:45:56;;;;;;;0.70;0.70;;;10.70;99.90;;;;;;5050494;28;20524;-67
2023/12/17 07:48:26;;;;;;;1.87;0.70;;;10.80;99.90;;;;;;5050023;28;20242;-68
2023/12/17 07:50:57;;;;;;;0.60;0.60;;;10.70;99.90;;;;;;5047519;28;20723;-67
2023/12/17 07:53:24;;;;;;;0.83;0.83;;;10.80;99.90;;;;;;5049982;28;20248;-68
2023/12/17 07:55:57;;;;;;;0.60;0.60;;;10.80;99.90;;;;;;5039612;28;20223;-68
2023/12/17 07:58:28;;;;;;;0.67;0.67;;;10.80;99.90;;;;;;5049169;28;20655;-67
2023/12/17 08:00:55;;;;;;;0.93;0.70;;;10.80;99.90;;;;;;5050636;28;20203;-67
2023/12/17 08:03:24;;;;;;;1.27;1.03;;;10.80;99.90;;;;;;5048421;28;20236;-68
2023/12/17 08:05:52;;;;;;;0.93;0.87;;;10.80;99.90;;;;;;5048240;28;20786;-68
2023/12/17 08:08:21;;;;;;;2.27;1.20;;;10.80;99.90;;;;;;5049673;28;20206;-66
2023/12/17 08:10:48;;;;;;;1.07;0.70;;;10.80;99.90;;;;;;5042746;28;20268;-67
2023/12/17 08:13:15;;;;;;;0.70;0.70;;;10.70;99.90;;;;;;5047534;28;20284;-67
2023/12/17 08:15:42;;;;;;;0.80;0.80;;;10.70;99.90;;;;;;5050157;28;20319;-67
2023/12/17 08:18:09;;;;;;;1.20;1.10;;;10.70;99.90;;;;;;5049671;28;20252;-66
2023/12/17 08:20:36;;;;;;;0.93;0.90;;;10.70;99.90;;;;;;5043158;28;20202;-66
2023/12/17 08:23:04;;;;;;;0.90;0.90;;;10.80;99.90;;;;;;5031369;28;20577;-66
2023/12/17 08:25:38;;;;;;;0.90;0.90;;;10.80;99.90;;;;;;5049286;28;20200;-66
2023/12/17 08:28:05;;;;;;;0.93;0.83;;;10.70;99.90;;;;;;5045854;28;20207;-66
2023/12/17 08:30:32;;;;;;;1.57;1.00;;;10.80;99.90;;;;;;5043641;28;20735;-67
2023/12/17 08:33:02;;;;;;;0.90;0.90;;;10.80;99.90;;;;;;5019278;28;20291;-68
2023/12/17 08:35:31;;;;;;;0.93;0.90;;;10.80;99.90;;;;;;5049776;28;20201;-67
2023/12/17 08:38:03;;;;;;;1.10;1.00;;;10.80;99.90;;;;;;5027988;28;20216;-67
2023/12/17 08:40:32;;;;;;;1.10;1.00;;;10.80;99.90;;;;;;5043291;28;20194;-67
2023/12/17 08:43:02;;;;;;;0.90;0.90;;;10.80;99.90;;;;;;5048794;28;20196;-67
2023/12/17 08:45:29;;;;;;;1.20;1.10;;;10.80;99.90;;;;;;5047325;28;20286;-68
2023/12/17 08:47:56;;;;;;;2.27;1.00;;;10.80;99.90;;;;;;5048223;28;20722;-67
2023/12/17 08:50:23;;;;;;;0.90;0.90;;;10.80;99.90;;;;;;5046821;28;20209;-67
2023/12/17 08:52:51;;;;;;;0.70;0.63;;;10.90;99.90;;;;;;5042040;28;20724;-66
2023/12/17 08:55:19;;;;;;;0.93;0.90;;;10.90;99.90;;;;;;5021067;28;20547;-66
2023/12/17 08:57:48;;;;;;;0.97;0.90;;;10.90;99.90;;;;;;5046963;28;20206;-67
2023/12/17 09:00:16;;;;;;;0.90;0.90;;;10.90;99.90;;;;;;5020454;28;20551;-67
2023/12/17 09:02:43;;;;;;;0.83;0.83;;;11.00;99.90;;;;;;5048510;28;20194;-65
2023/12/17 09:05:10;;;;;;;1.03;1.00;;;11.00;99.90;;;;;;5031840;28;20232;-67
2023/12/17 09:07:37;;;;;;;0.87;0.87;;;11.00;99.90;;;;;;5027603;28;20269;-67
2023/12/17 09:10:05;;;;;;;0.90;0.90;;;11.10;99.90;;;;;;5026678;28;20211;-67
2023/12/17 09:12:32;;;;;;;1.77;1.10;;;11.10;99.90;;;;;;5009481;28;20670;-67
2023/12/17 09:15:01;;;;;;;1.07;1.07;;;11.10;99.90;;;;;;5024826;28;20194;-67
2023/12/17 09:17:28;;;;;;;1.20;0.90;;;11.20;99.90;;;;;;5009716;28;20543;-66
2023/12/17 09:19:55;;;;;;;1.60;1.03;;;11.10;99.90;;;;;;5023827;28;20294;-67
2023/12/17 09:22:23;;;;;;;1.20;1.10;;;11.10;99.90;;;;;;5024735;28;20620;-65
2023/12/17 09:24:50;;;;;;;1.00;1.00;;;11.10;99.90;;;;;;5026611;28;20655;-66
2023/12/17 09:27:17;;;;;;;1.47;1.20;;;11.10;99.90;;;;;;5017184;28;20577;-67
2023/12/17 09:29:46;;;;;;;1.23;1.13;;;11.00;99.90;;;;;;5015157;28;20617;-67
2023/12/17 09:32:15;;;;;;;0.97;0.97;;;11.00;99.90;;;;;;5010919;28;20226;-67
2023/12/17 09:34:42;;;;;;;1.40;1.30;;;11.00;99.90;;;;;;5025564;28;20261;-68
2023/12/17 09:37:09;;;;;;;1.20;1.20;;;11.10;99.90;;;;;;5021253;28;20195;-67
2023/12/17 09:39:36;;;;;;;1.10;1.10;;;11.10;99.90;;;;;;5029693;28;20759;-67
2023/12/17 09:42:05;;;;;;;1.13;1.13;;;11.10;99.90;;;;;;5023996;28;20576;-68
2023/12/17 09:44:32;;;;;;;1.30;1.20;;;11.10;99.90;;;;;;5032433;28;20219;-66
2023/12/17 09:46:59;;;;;;;2.50;1.27;;;11.10;99.90;;;;;;5032655;28;20204;-67
2023/12/17 09:49:30;;;;;;;1.40;1.30;;;11.10;99.90;;;;;;5013332;28;20228;-67
2023/12/17 09:52:01;;;;;;;1.13;1.03;;;11.10;99.90;;;;;;5025628;28;20227;-68
2023/12/17 09:54:29;;;;;;;2.93;1.63;;;11.10;99.90;;;;;;5029692;28;20182;-67
2023/12/17 09:56:56;;;;;;;2.20;1.23;;;11.20;99.90;;;;;;5022778;28;20191;-66
2023/12/17 09:59:24;;;;;;;1.50;1.40;;;11.20;99.90;;;;;;5012141;28;20195;-67
2023/12/17 10:01:52;;;;;;;0.87;0.87;;;11.20;99.90;;;;;;5031532;28;20190;-67
2023/12/17 10:04:24;;;;;;;2.10;1.33;;;11.20;99.90;;;;;;5025271;28;20234;-66
2023/12/17 10:06:53;;;;;;;2.13;1.60;;;11.20;99.90;;;;;;5041928;28;20203;-68
2023/12/17 10:09:23;;;;;;;1.10;1.10;;;11.20;99.90;;;;;;5031835;28;20644;-67
2023/12/17 10:11:50;;;;;;;1.53;1.43;;;11.20;99.90;;;;;;5044042;28;20203;-68
2023/12/17 10:14:21;;;;;;;1.70;1.60;;;11.20;99.90;;;;;;5037489;28;20214;-67
2023/12/17 10:16:51;;;;;;;1.50;1.40;;;11.30;99.90;;;;;;5046163;28;20235;-66
2023/12/17 10:19:18;;;;;;;1.97;1.50;;;11.20;99.90;;;;;;5035550;28;20189;-66
2023/12/17 10:21:45;;;;;;;1.63;1.50;;;11.20;99.90;;;;;;5051281;28;20260;-65
2023/12/17 10:24:13;;;;;;;1.50;1.40;;;11.20;99.90;;;;;;5050345;28;20571;-67
2023/12/17 10:26:44;;;;;;;2.37;1.87;;;11.20;99.90;;;;;;5048870;28;20203;-67
2023/12/17 10:29:14;;;;;;;1.60;1.50;;;11.20;99.90;;;;;;5029012;28;20633;-66
2023/12/17 10:31:45;;;;;;;1.50;1.40;;;11.20;99.90;;;;;;5051915;28;20282;-67
2023/12/17 10:34:19;;;;;;;1.50;1.40;;;11.30;99.90;;;;;;5029909;28;20202;-66
2023/12/17 10:36:47;;;;;;;1.40;1.30;;;11.30;99.90;;;;;;5029720;28;20588;-67
2023/12/17 10:39:18;;;;;;;1.40;1.30;;;11.20;99.90;;;;;;5049991;28;20216;-67
2023/12/17 10:41:48;;;;;;;1.50;1.40;;;11.30;99.90;;;;;;5048792;28;20194;-68
2023/12/17 10:44:16;;;;;;;1.17;1.10;;;11.30;99.90;;;;;;5042511;28;20197;-67
2023/12/17 10:46:46;;;;;;;1.20;1.10;;;11.40;99.90;;;;;;5044316;28;20192;-67
2023/12/17 10:49:13;;;;;;;1.37;1.27;;;11.40;99.90;;;;;;5046583;28;20198;-67
2023/12/17 10:51:42;;;;;;;1.50;1.40;;;11.40;99.90;;;;;;5029483;28;20651;-67
2023/12/17 10:54:10;;;;;;;1.17;1.10;;;11.40;99.90;;;;;;5045780;28;20207;-67
2023/12/17 10:56:42;;;;;;;1.27;1.20;;;11.50;99.90;;;;;;5026306;28;20259;-68
2023/12/17 10:59:14;;;;;;;2.90;1.60;;;11.50;99.90;;;;;;5041525;28;20183;-67
2023/12/17 11:01:42;;;;;;;1.80;1.40;;;11.50;99.90;;;;;;5029956;28;20198;-67
2023/12/17 11:04:11;;;;;;;1.50;1.40;;;11.50;99.90;;;;;;5045907;28;20307;-67
2023/12/17 11:06:39;;;;;;;1.33;1.23;;;11.50;99.90;;;;;;5043561;28;20202;-66
2023/12/17 11:09:08;;;;;;;3.13;1.20;;;11.50;99.90;;;;;;5048929;28;20202;-67
2023/12/17 11:11:36;;;;;;;1.40;1.30;;;11.50;99.90;;;;;;5047807;28;20220;-66
2023/12/17 11:14:04;;;;;;;1.73;1.20;;;11.60;99.90;;;;;;5044370;28;20205;-67
2023/12/17 11:16:31;;;;;;;1.30;1.20;;;11.50;99.90;;;;;;5049242;28;20190;-67
2023/12/17 11:19:00;;;;;;;1.20;1.20;;;11.50;99.90;;;;;;5027894;28;20213;-67
2023/12/17 11:21:28;;;;;;;2.10;1.30;;;11.60;99.90;;;;;;5043447;28;20683;-67
2023/12/17 11:23:58;;;;;;;1.10;1.07;;;11.50;99.90;;;;;;5030854;28;20368;-67
2023/12/17 11:26:28;;;;;;;1.93;1.10;;;11.60;99.90;;;;;;5024168;28;20222;-67
2023/12/17 11:28:57;;;;;;;1.43;1.33;;;11.60;99.90;;;;;;5031613;28;20252;-67
2023/12/17 11:31:26;;;;;;;1.83;1.30;;;11.60;99.90;;;;;;5050769;28;20201;-67
2023/12/17 11:33:54;;;;;;;1.43;1.33;;;11.70;99.90;;;;;;5039541;28;20192;-66
2023/12/17 11:36:21;;;;;;;1.37;1.27;;;11.70;99.90;;;;;;5049900;28;20198;-66
2023/12/17 11:38:50;;;;;;;2.13;1.53;;;11.70;99.90;;;;;;5049206;28;20202;-67
2023/12/17 11:41:17;;;;;;;1.90;1.53;;;11.70;99.90;;;;;;5046316;28;20291;-68
2023/12/17 11:43:45;;;;;;;1.70;1.60;;;11.70;99.90;;;;;;5050215;28;20201;-66
2023/12/17 11:46:13;;;;;;;1.40;1.30;;;11.70;99.90;;;;;;5050801;28;20513;-67
2023/12/17 11:48:44;;;;;;;2.43;1.60;;;11.70;99.90;;;;;;5047334;28;20213;-67
2023/12/17 11:51:11;;;;;;;1.70;1.50;;;11.70;99.90;;;;;;5050184;28;20205;-67
2023/12/17 11:53:42;;;;;;;1.53;1.43;;;11.60;99.90;;;;;;5047519;28;20194;-67
2023/12/17 11:56:11;;;;;;;1.90;1.63;;;11.70;99.90;;;;;;5046806;28;20299;-67
2023/12/17 11:58:47;;;;;;;1.73;1.30;;;11.70;99.90;;;;;;5030004;28;20297;-68
2023/12/17 12:01:17;;;;;;;1.47;1.23;;;11.70;99.90;;;;;;5044537;28;20269;-67
2023/12/17 12:03:46;;;;;;;1.60;1.40;;;11.70;99.90;;;;;;5030387;28;20307;-67
2023/12/17 12:06:15;;;;;;;3.53;1.40;;;11.90;99.90;;;;;;5029917;28;20570;-67
2023/12/17 12:08:48;;;;;;;2.10;1.60;;;11.80;99.90;;;;;;5010562;28;20207;-67
2023/12/17 12:11:19;;;;;;;2.23;1.60;;;11.80;99.90;;;;;;5028913;28;20220;-67
2023/12/17 12:13:48;;;;;;;2.27;1.60;;;11.80;99.90;;;;;;5030285;28;20933;-67
2023/12/17 12:16:17;;;;;;;1.33;1.20;;;11.80;99.90;;;;;;5027880;28;20194;-68
2023/12/17 12:18:45;;;;;;;2.10;1.90;;;11.80;99.90;;;;;;5012323;28;20206;-67
2023/12/17 12:21:18;;;;;;;2.17;1.73;;;11.80;99.90;;;;;;5026401;28;20275;-67
2023/12/17 12:23:52;;;;;;;1.90;1.63;;;11.80;99.90;;;;;;5029920;28;20191;-66
2023/12/17 12:26:21;;;;;;;4.03;2.17;;;11.80;99.90;;;;;;5029558;28;20554;-67
2023/12/17 12:28:58;;;;;;;3.20;2.10;;;11.80;99.90;;;;;;5028497;28;20589;-67
2023/12/17 12:31:26;;;;;;;2.30;2.10;;;11.70;99.90;;;;;;5026225;28;20345;-68
2023/12/17 12:33:55;;;;;;;3.17;2.13;;;11.70;99.90;;;;;;5029630;28;20200;-68
2023/12/17 12:36:22;;;;;;;2.00;1.80;;;11.70;99.90;;;;;;5024176;28;20291;-67
2023/12/17 12:39:02;;;;;;;3.87;2.40;;;11.70;99.90;;;;;;5015687;28;20202;-66
2023/12/17 12:41:30;;;;;;;3.13;2.40;;;11.60;99.90;;;;;;5028759;28;20194;-67
2023/12/17 12:43:57;;;;;;;6.03;2.27;;;11.60;99.90;;;;;;5029232;28;20724;-67
2023/12/17 12:46:24;;;;;;;3.70;2.53;;;11.60;99.90;;;;;;5009252;28;20198;-68
2023/12/17 12:48:58;;;;;;;5.83;2.53;;;11.60;99.90;;;;;;5012070;28;20584;-67
2023/12/17 12:51:26;;;;;;;2.60;2.20;;;11.60;99.90;;;;;;5011463;28;20230;-68